createdAt,value
2019-04-07T00:00:03.960Z,122.27
2019-04-07T00:04:10.921Z,117.33
2019-04-07T00:08:16.846Z,120.87
2019-04-07T00:12:24.620Z,124.77
2019-04-07T00:16:29.820Z,120.50
2019-04-07T00:20:35.250Z,125.37
2019-04-07T00:24:40.369Z,121.83
2019-04-07T00:28:45.515Z,122.87
2019-04-07T00:32:50.725Z,125.17
2019-04-07T00:36:55.972Z,120.30
2019-04-07T00:41:01.411Z,110.47
2019-04-07T00:45:07.089Z,119.97
2019-04-07T00:49:13.233Z,119.00
2019-04-07T00:53:18.799Z,119.93
2019-04-07T00:57:24.364Z,117.03
2019-04-07T01:01:29.563Z,110.30
2019-04-07T01:05:38.544Z,117.70
2019-04-07T01:09:41.655Z,125.93
2019-04-07T01:13:47.369Z,111.17
2019-04-07T01:17:53.510Z,118.07
2019-04-07T01:21:59.074Z,119.63
2019-04-07T01:26:04.807Z,106.60
2019-04-07T01:30:10.662Z,113.37
2019-04-07T01:34:16.299Z,110.93
2019-04-07T01:38:22.495Z,117.70
2019-04-07T01:42:33.408Z,105.17
2019-04-07T01:46:56.929Z,115.40
2019-04-07T01:51:39.169Z,107.77
2019-04-07T01:55:59.548Z,107.37
2019-04-07T02:00:13.779Z,112.57
2019-04-07T02:04:28.087Z,114.60
2019-04-07T02:08:51.801Z,116.70
2019-04-07T02:13:19.849Z,111.27
2019-04-07T02:17:34.023Z,110.80
2019-04-07T02:21:58.372Z,110.57
2019-04-07T02:26:11.460Z,115.53
2019-04-07T02:30:33.050Z,109.53
2019-04-07T02:35:03.631Z,116.47
2019-04-07T02:39:27.821Z,100.93
2019-04-07T02:43:52.988Z,98.27
2019-04-07T02:48:26.582Z,103.43
2019-04-07T02:52:53.512Z,93.33
2019-04-07T02:57:20.668Z,93.80
2019-04-07T03:01:45.344Z,92.27
2019-04-07T03:06:10.057Z,91.80
2019-04-07T03:10:44.148Z,93.80
2019-04-07T03:14:58.492Z,96.93
2019-04-07T03:19:08.808Z,93.57
2019-04-07T03:23:31.789Z,93.10
2019-04-07T03:27:59.181Z,93.83
2019-04-07T03:32:27.926Z,120.60
2019-04-07T03:37:16.930Z,114.07
2019-04-07T03:41:05.561Z,116.53
2019-04-07T03:45:35.815Z,95.30
2019-04-07T03:49:59.707Z,123.30
2019-04-07T03:54:14.233Z,120.73
2019-04-07T03:58:29.876Z,115.30
2019-04-07T04:03:00.333Z,107.50
2019-04-07T04:07:33.961Z,127.83
2019-04-07T04:11:43.716Z,143.03
2019-04-07T04:16:15.105Z,140.60
2019-04-07T04:20:20.439Z,131.10
2019-04-07T04:24:26.619Z,149.50
2019-04-07T04:28:31.966Z,160.40
2019-04-07T04:32:37.233Z,150.60
2019-04-07T04:36:44.730Z,143.15
2019-04-07T04:40:50.577Z,123.10
2019-04-07T04:44:55.948Z,111.50
2019-04-07T04:49:02.347Z,103.53
2019-04-07T04:53:09.233Z,119.90
2019-04-07T04:57:15.059Z,127.33
2019-04-07T05:01:20.626Z,105.77
2019-04-07T05:05:25.804Z,112.17
2019-04-07T05:09:43.197Z,105.33
2019-04-07T05:13:37.687Z,108.20
2019-04-07T05:17:43.465Z,136.47
2019-04-07T05:21:49.484Z,130.87
2019-04-07T05:25:54.800Z,105.40
2019-04-07T05:30:02.432Z,110.00
2019-04-07T05:34:08.031Z,144.27
2019-04-07T05:38:13.602Z,151.47
2019-04-07T05:42:18.926Z,137.43
2019-04-07T05:46:24.995Z,158.17
2019-04-07T05:50:30.727Z,141.90
2019-04-07T05:54:37.745Z,139.90
2019-04-07T05:58:43.896Z,162.00
2019-04-07T06:02:49.273Z,121.63
2019-04-07T06:06:56.388Z,213.53
2019-04-07T06:11:02.461Z,120.80
2019-04-07T06:15:08.066Z,113.30
2019-04-07T06:19:13.547Z,114.30
2019-04-07T06:23:22.747Z,111.87
2019-04-07T06:27:25.815Z,112.57
2019-04-07T06:31:32.232Z,97.43
2019-04-07T06:35:37.996Z,104.20
2019-04-07T06:39:44.019Z,109.37
2019-04-07T06:43:49.702Z,101.47
2019-04-07T06:47:57.256Z,99.93
2019-04-07T06:52:20.890Z,85.25
2019-04-07T06:56:35.694Z,97.90
2019-04-07T07:01:02.150Z,94.33
2019-04-07T07:05:17.851Z,100.67
2019-04-07T07:09:35.063Z,83.23
2019-04-07T07:13:49.920Z,86.13
2019-04-07T07:18:32.357Z,86.97
2019-04-07T07:23:00.702Z,84.87
2019-04-07T07:27:09.392Z,87.27
2019-04-07T07:31:14.335Z,85.47
2019-04-07T07:35:19.558Z,82.33
2019-04-07T07:39:25.096Z,68.77
2019-04-07T07:43:32.448Z,67.30
2019-04-07T07:47:38.474Z,65.63
2019-04-07T07:51:47.370Z,64.13
2019-04-07T07:55:51.180Z,62.43
2019-04-07T07:59:56.488Z,61.23
2019-04-07T08:04:01.965Z,60.77
2019-04-07T08:08:07.325Z,52.80
2019-04-07T08:12:12.689Z,55.53
2019-04-07T08:16:19.107Z,44.97
2019-04-07T08:20:25.671Z,42.95
2019-04-07T08:24:31.784Z,42.05
2019-04-07T08:28:38.173Z,38.67
2019-04-07T08:32:44.150Z,35.83
2019-04-07T08:36:49.532Z,36.95
2019-04-07T08:40:55.203Z,34.90
2019-04-07T08:45:00.722Z,38.53
2019-04-07T08:49:06.594Z,33.15
2019-04-07T08:53:13.765Z,35.77
2019-04-07T08:57:19.624Z,33.85
2019-04-07T09:01:25.749Z,33.25
2019-04-07T09:05:31.790Z,33.98
2019-04-07T09:09:42.798Z,31.35
2019-04-07T09:13:50.663Z,34.33
2019-04-07T09:18:16.076Z,31.62
2019-04-07T09:22:31.871Z,28.50
2019-04-07T09:27:02.238Z,31.40
2019-04-07T09:31:29.421Z,30.02
2019-04-07T09:35:54.727Z,32.42
2019-04-07T09:40:18.538Z,31.02
2019-04-07T09:44:56.307Z,30.82
2019-04-07T09:49:26.455Z,28.90
2019-04-07T09:53:50.704Z,24.82
2019-04-07T09:58:09.282Z,24.60
2019-04-07T10:02:35.444Z,27.25
2019-04-07T10:06:58.386Z,20.15
2019-04-07T10:11:28.537Z,21.17
2019-04-07T10:15:54.274Z,22.77
2019-04-07T10:20:34.159Z,66.25
2019-04-07T10:25:03.188Z,21.15
2019-04-07T10:29:20.563Z,22.98
2019-04-07T10:33:47.184Z,23.32
2019-04-07T10:38:04.437Z,21.62
2019-04-07T10:42:29.276Z,23.22
2019-04-07T10:46:42.781Z,52.08
2019-04-07T10:51:05.659Z,22.15
2019-04-07T10:55:18.040Z,24.07
2019-04-07T10:59:49.201Z,24.98
2019-04-07T11:04:11.617Z,25.77
2019-04-07T11:08:26.557Z,23.07
2019-04-07T11:12:51.349Z,27.10
2019-04-07T11:17:21.557Z,24.23
2019-04-07T11:21:50.276Z,24.37
2019-04-07T11:26:20.848Z,23.73
2019-04-07T11:30:45.470Z,23.20
2019-04-07T11:34:58.432Z,24.35
2019-04-07T11:39:24.426Z,21.62
2019-04-07T11:43:35.923Z,16.90
2019-04-07T11:48:03.453Z,17.10
2019-04-07T11:52:23.515Z,17.70
2019-04-07T11:56:47.711Z,16.27
2019-04-07T12:01:05.827Z,14.53
2019-04-07T12:05:33.340Z,11.93
2019-04-07T12:09:56.310Z,12.00
2019-04-07T12:14:30.759Z,10.98
2019-04-07T12:18:50.199Z,8.68
2019-04-07T12:23:16.012Z,9.18
2019-04-07T12:27:37.799Z,10.72
2019-04-07T12:32:18.101Z,8.48
2019-04-07T12:36:33.303Z,6.60
2019-04-07T12:41:12.711Z,7.22
2019-04-07T12:45:12.383Z,6.75
2019-04-07T12:49:39.183Z,8.20
2019-04-07T12:54:20.610Z,6.58
2019-04-07T12:58:44.052Z,6.20
2019-04-07T13:03:14.551Z,8.28
2019-04-07T13:07:41.539Z,6.28
2019-04-07T13:12:04.368Z,6.65
2019-04-07T13:16:23.858Z,6.75
2019-04-07T13:20:44.190Z,9.48
2019-04-07T13:25:11.718Z,5.62
2019-04-07T13:29:30.164Z,7.10
2019-04-07T13:33:41.373Z,5.25
2019-04-07T13:38:01.060Z,6.33
2019-04-07T13:42:35.711Z,6.47
2019-04-07T13:46:59.639Z,6.55
2019-04-07T13:51:15.502Z,7.28
2019-04-07T13:55:41.611Z,5.22
2019-04-07T14:00:02.808Z,5.95
2019-04-07T14:04:34.553Z,5.53
2019-04-07T14:09:06.922Z,7.70
2019-04-07T14:13:43.128Z,7.83
2019-04-07T14:17:58.741Z,8.18
2019-04-07T14:22:15.537Z,6.37
2019-04-07T14:26:41.301Z,10.50
2019-04-07T14:31:06.469Z,7.62
2019-04-07T14:35:33.652Z,6.15
2019-04-07T14:39:44.453Z,8.03
2019-04-07T14:44:05.310Z,7.55
2019-04-07T14:48:29.360Z,6.87
2019-04-07T14:53:03.113Z,7.10
2019-04-07T14:57:24.493Z,8.05
2019-04-07T15:01:47.342Z,7.17
2019-04-07T15:05:56.339Z,7.22
2019-04-07T15:10:17.999Z,7.53
2019-04-07T15:14:23.352Z,9.43
2019-04-07T15:18:29.780Z,7.03
2019-04-07T15:22:34.935Z,7.35
2019-04-07T15:26:41.263Z,6.78
2019-04-07T15:30:48.246Z,6.10
2019-04-07T15:34:53.445Z,6.12
2019-04-07T15:38:59.460Z,5.70
2019-04-07T15:43:08.762Z,8.37
2019-04-07T15:47:12.558Z,6.40
2019-04-07T15:51:17.675Z,7.97
2019-04-07T15:55:26.327Z,7.08
2019-04-07T15:59:31.400Z,8.55
2019-04-07T16:03:36.772Z,12.47
2019-04-07T16:07:54.322Z,13.50
2019-04-07T16:12:00.648Z,11.85
2019-04-07T16:16:06.085Z,10.10
2019-04-07T16:20:20.674Z,8.58
2019-04-07T16:24:21.965Z,6.87
2019-04-07T16:28:27.418Z,10.15
2019-04-07T16:32:32.807Z,14.60
2019-04-07T16:36:41.295Z,14.50
2019-04-07T16:40:46.743Z,14.25
2019-04-07T16:44:52.592Z,15.05
2019-04-07T16:48:58.711Z,15.10
2019-04-07T16:53:07.569Z,14.68
2019-04-07T16:57:15.398Z,12.88
2019-04-07T17:01:20.537Z,12.05
2019-04-07T17:05:25.712Z,15.10
2019-04-07T17:09:33.424Z,14.53
2019-04-07T17:13:41.857Z,14.03
2019-04-07T17:17:46.527Z,16.73
2019-04-07T17:21:53.310Z,14.73
2019-04-07T17:25:58.658Z,13.60
2019-04-07T17:30:04.838Z,12.65
2019-04-07T17:34:12.072Z,16.87
2019-04-07T17:38:18.264Z,14.58
2019-04-07T17:42:26.263Z,15.95
2019-04-07T17:46:55.830Z,16.02
2019-04-07T17:51:21.830Z,13.90
2019-04-07T17:55:57.541Z,15.05
2019-04-07T18:00:22.365Z,13.50
2019-04-07T18:04:52.464Z,15.58
2019-04-07T18:09:23.543Z,13.50
2019-04-07T18:13:56.652Z,15.20
2019-04-07T18:18:21.297Z,17.25
2019-04-07T18:22:53.929Z,28.35
2019-04-07T18:27:11.012Z,15.32
2019-04-07T18:31:24.423Z,14.15
2019-04-07T18:35:52.208Z,13.45
2019-04-07T18:40:15.093Z,15.72
2019-04-07T18:44:45.283Z,14.20
2019-04-07T18:49:19.143Z,14.85
2019-04-07T18:54:01.402Z,17.37
2019-04-07T18:58:22.414Z,17.12
2019-04-07T19:02:53.463Z,16.55
2019-04-07T19:07:18.504Z,20.02
2019-04-07T19:11:42.760Z,16.42
2019-04-07T19:16:04.091Z,16.02
2019-04-07T19:20:41.802Z,16.05
2019-04-07T19:24:58.541Z,15.73
2019-04-07T19:29:29.420Z,15.35
2019-04-07T19:34:11.876Z,15.93
2019-04-07T19:38:30.978Z,16.80
2019-04-07T19:42:53.404Z,18.75
2019-04-07T19:47:05.089Z,16.12
2019-04-07T19:51:32.161Z,19.42
2019-04-07T19:55:59.802Z,18.62
2019-04-07T20:00:24.628Z,17.02
2019-04-07T20:04:37.371Z,17.30
2019-04-07T20:08:49.345Z,18.27
2019-04-07T20:13:06.279Z,21.00
2019-04-07T20:17:34.449Z,59.83
2019-04-07T20:22:04.713Z,22.75
2019-04-07T20:26:21.422Z,21.40
2019-04-07T20:30:49.642Z,18.77
2019-04-07T20:35:11.541Z,22.50
2019-04-07T20:39:36.697Z,19.57
2019-04-07T20:44:07.659Z,19.45
2019-04-07T20:48:38.155Z,18.62
2019-04-07T20:52:53.601Z,20.57
2019-04-07T20:57:34.117Z,21.02
2019-04-07T21:02:03.403Z,18.98
2019-04-07T21:06:19.802Z,20.68
2019-04-07T21:10:37.683Z,19.98
2019-04-07T21:15:18.257Z,19.23
2019-04-07T21:19:38.421Z,23.35
2019-04-07T21:24:03.662Z,21.20
2019-04-07T21:28:13.646Z,20.80
2019-04-07T21:32:53.960Z,23.15
2019-04-07T21:37:34.034Z,21.23
2019-04-07T21:41:58.365Z,22.60
2019-04-07T21:46:22.197Z,19.83
2019-04-07T21:50:44.858Z,19.87
2019-04-07T21:55:09.846Z,21.40
2019-04-07T21:59:28.446Z,22.20
2019-04-07T22:03:56.881Z,21.33
2019-04-07T22:08:13.052Z,23.23
2019-04-07T22:12:13.103Z,23.57
2019-04-07T22:16:18.607Z,24.77
2019-04-07T22:20:29.223Z,25.97
2019-04-07T22:24:38.343Z,33.63
2019-04-07T22:28:44.727Z,41.67
2019-04-07T22:32:51.308Z,53.68
2019-04-07T22:36:57.861Z,63.23
2019-04-07T22:41:06.799Z,64.17
2019-04-07T22:45:11.756Z,70.33
2019-04-07T22:49:19.817Z,69.03
2019-04-07T22:53:28.484Z,76.07
2019-04-07T22:57:33.800Z,79.60
2019-04-07T23:01:39.203Z,87.63
2019-04-07T23:05:44.429Z,84.83
2019-04-07T23:09:52.565Z,80.20
2019-04-07T23:13:59.360Z,78.17
2019-04-07T23:18:07.374Z,82.17
2019-04-07T23:22:12.630Z,88.27
2019-04-07T23:26:18.107Z,95.37
2019-04-07T23:30:23.907Z,87.63
2019-04-07T23:34:29.279Z,80.67
2019-04-07T23:38:36.883Z,86.37
2019-04-07T23:42:43.409Z,84.80
2019-04-07T23:46:50.914Z,87.97
2019-04-07T23:50:58.261Z,82.67
2019-04-07T23:55:04.309Z,84.27
2019-04-07T23:59:10.364Z,87.93
